sensor_id;sensor_type;location;lat;lon;timestamp;temperature;humidity
65374;SHT31;52070;53.760;9.678;2022-12-20T00:01:57;6.95;88.50
65374;SHT31;52070;53.760;9.678;2022-12-20T00:04:24;6.93;88.53
65374;SHT31;52070;53.760;9.678;2022-12-20T00:06:51;6.95;88.50
65374;SHT31;52070;53.760;9.678;2022-12-20T00:09:18;6.92;88.69
65374;SHT31;52070;53.760;9.678;2022-12-20T00:11:46;6.93;88.71
65374;SHT31;52070;53.760;9.678;2022-12-20T00:14:13;7.00;88.60
65374;SHT31;52070;53.760;9.678;2022-12-20T00:16:40;6.99;88.45
65374;SHT31;52070;53.760;9.678;2022-12-20T00:19:09;7.04;88.39
65374;SHT31;52070;53.760;9.678;2022-12-20T00:21:37;6.99;88.38
65374;SHT31;52070;53.760;9.678;2022-12-20T00:24:05;6.97;88.63
65374;SHT31;52070;53.760;9.678;2022-12-20T00:26:33;6.99;88.69
65374;SHT31;52070;53.760;9.678;2022-12-20T00:29:02;7.00;88.69
65374;SHT31;52070;53.760;9.678;2022-12-20T00:31:30;6.97;88.74
65374;SHT31;52070;53.760;9.678;2022-12-20T00:33:58;6.97;88.75
65374;SHT31;52070;53.760;9.678;2022-12-20T00:36:27;6.93;88.70
65374;SHT31;52070;53.760;9.678;2022-12-20T00:38:55;6.96;88.71
65374;SHT31;52070;53.760;9.678;2022-12-20T00:41:24;7.01;88.59
65374;SHT31;52070;53.760;9.678;2022-12-20T00:43:51;6.99;88.63
65374;SHT31;52070;53.760;9.678;2022-12-20T00:46:20;6.97;88.65
65374;SHT31;52070;53.760;9.678;2022-12-20T00:48:49;6.93;88.65
65374;SHT31;52070;53.760;9.678;2022-12-20T00:51:18;7.03;88.70
65374;SHT31;52070;53.760;9.678;2022-12-20T00:53:46;7.09;88.63
65374;SHT31;52070;53.760;9.678;2022-12-20T00:56:13;7.10;88.51
65374;SHT31;52070;53.760;9.678;2022-12-20T00:58:42;7.10;88.46
65374;SHT31;52070;53.760;9.678;2022-12-20T01:01:15;7.14;88.48
65374;SHT31;52070;53.760;9.678;2022-12-20T01:03:44;7.20;88.44
65374;SHT31;52070;53.760;9.678;2022-12-20T01:06:11;7.21;88.25
65374;SHT31;52070;53.760;9.678;2022-12-20T01:08:38;7.23;88.28
65374;SHT31;52070;53.760;9.678;2022-12-20T01:11:08;7.28;88.17
65374;SHT31;52070;53.760;9.678;2022-12-20T01:13:36;7.27;88.13
65374;SHT31;52070;53.760;9.678;2022-12-20T01:16:05;7.35;88.08
65374;SHT31;52070;53.760;9.678;2022-12-20T01:18:33;7.37;87.92
65374;SHT31;52070;53.760;9.678;2022-12-20T01:21:02;7.41;87.78
65374;SHT31;52070;53.760;9.678;2022-12-20T01:23:30;7.48;87.63
65374;SHT31;52070;53.760;9.678;2022-12-20T01:25:58;7.46;87.50
65374;SHT31;52070;53.760;9.678;2022-12-20T01:28:25;7.48;87.57
65374;SHT31;52070;53.760;9.678;2022-12-20T01:30:53;7.48;87.60
65374;SHT31;52070;53.760;9.678;2022-12-20T01:33:20;7.50;87.72
65374;SHT31;52070;53.760;9.678;2022-12-20T01:35:58;7.51;87.60
65374;SHT31;52070;53.760;9.678;2022-12-20T01:38:27;7.60;87.57
65374;SHT31;52070;53.760;9.678;2022-12-20T01:40:55;7.60;87.45
65374;SHT31;52070;53.760;9.678;2022-12-20T01:43:22;7.57;87.61
65374;SHT31;52070;53.760;9.678;2022-12-20T01:45:50;7.60;87.62
65374;SHT31;52070;53.760;9.678;2022-12-20T01:48:20;7.67;87.50
65374;SHT31;52070;53.760;9.678;2022-12-20T01:50:49;7.70;87.34
65374;SHT31;52070;53.760;9.678;2022-12-20T01:53:19;7.70;87.42
65374;SHT31;52070;53.760;9.678;2022-12-20T01:55:48;7.70;87.46
65374;SHT31;52070;53.760;9.678;2022-12-20T01:58:17;7.74;87.51
65374;SHT31;52070;53.760;9.678;2022-12-20T02:00:45;7.79;87.46
65374;SHT31;52070;53.760;9.678;2022-12-20T02:03:13;7.78;87.40
65374;SHT31;52070;53.760;9.678;2022-12-20T02:05:42;7.85;87.30
65374;SHT31;52070;53.760;9.678;2022-12-20T02:08:10;7.88;87.35
65374;SHT31;52070;53.760;9.678;2022-12-20T02:10:51;7.89;87.25
65374;SHT31;52070;53.760;9.678;2022-12-20T02:13:28;7.92;87.30
65374;SHT31;52070;53.760;9.678;2022-12-20T02:15:59;7.95;87.22
65374;SHT31;52070;53.760;9.678;2022-12-20T02:18:28;8.03;87.22
65374;SHT31;52070;53.760;9.678;2022-12-20T02:21:11;8.06;87.19
65374;SHT31;52070;53.760;9.678;2022-12-20T02:24:06;8.09;87.29
65374;SHT31;52070;53.760;9.678;2022-12-20T02:27:21;8.07;87.47
65374;SHT31;52070;53.760;9.678;2022-12-20T02:30:05;8.05;87.80
65374;SHT31;52070;53.760;9.678;2022-12-20T02:32:36;8.07;87.87
65374;SHT31;52070;53.760;9.678;2022-12-20T02:35:05;8.15;87.78
65374;SHT31;52070;53.760;9.678;2022-12-20T02:37:33;8.12;87.66
65374;SHT31;52070;53.760;9.678;2022-12-20T02:40:01;8.17;87.53
65374;SHT31;52070;53.760;9.678;2022-12-20T02:42:31;8.23;87.39
65374;SHT31;52070;53.760;9.678;2022-12-20T02:45:01;8.26;87.20
65374;SHT31;52070;53.760;9.678;2022-12-20T02:47:47;8.26;87.17
65374;SHT31;52070;53.760;9.678;2022-12-20T02:50:17;8.26;87.19
65374;SHT31;52070;53.760;9.678;2022-12-20T02:52:46;8.26;87.24
65374;SHT31;52070;53.760;9.678;2022-12-20T02:55:13;8.35;87.26
65374;SHT31;52070;53.760;9.678;2022-12-20T02:57:44;8.35;87.01
65374;SHT31;52070;53.760;9.678;2022-12-20T03:00:15;8.29;87.11
65374;SHT31;52070;53.760;9.678;2022-12-20T03:02:46;8.33;87.13
65374;SHT31;52070;53.760;9.678;2022-12-20T03:05:33;8.35;87.12
65374;SHT31;52070;53.760;9.678;2022-12-20T03:08:01;8.33;86.87
65374;SHT31;52070;53.760;9.678;2022-12-20T03:10:28;8.22;87.09
65374;SHT31;52070;53.760;9.678;2022-12-20T03:13:20;8.21;87.19
65374;SHT31;52070;53.760;9.678;2022-12-20T03:15:47;8.26;87.08
65374;SHT31;52070;53.760;9.678;2022-12-20T03:18:15;8.26;87.13
65374;SHT31;52070;53.760;9.678;2022-12-20T03:20:43;8.22;87.14
65374;SHT31;52070;53.760;9.678;2022-12-20T03:23:10;8.22;87.26
65374;SHT31;52070;53.760;9.678;2022-12-20T03:25:37;8.16;87.28
65374;SHT31;52070;53.760;9.678;2022-12-20T03:28:04;8.13;87.41
65374;SHT31;52070;53.760;9.678;2022-12-20T03:30:31;8.13;87.57
65374;SHT31;52070;53.760;9.678;2022-12-20T03:32:58;8.12;87.64
65374;SHT31;52070;53.760;9.678;2022-12-20T03:35:26;8.15;87.62
65374;SHT31;52070;53.760;9.678;2022-12-20T03:37:53;8.13;87.74
65374;SHT31;52070;53.760;9.678;2022-12-20T03:40:21;8.07;87.76
65374;SHT31;52070;53.760;9.678;2022-12-20T03:42:48;8.06;87.99
65374;SHT31;52070;53.760;9.678;2022-12-20T03:45:15;8.13;87.94
65374;SHT31;52070;53.760;9.678;2022-12-20T03:47:42;8.09;87.92
65374;SHT31;52070;53.760;9.678;2022-12-20T03:50:11;8.06;88.03
65374;SHT31;52070;53.760;9.678;2022-12-20T03:52:39;8.06;88.12
65374;SHT31;52070;53.760;9.678;2022-12-20T03:55:07;8.07;88.23
65374;SHT31;52070;53.760;9.678;2022-12-20T03:57:37;8.12;88.21
65374;SHT31;52070;53.760;9.678;2022-12-20T04:00:05;8.12;88.16
65374;SHT31;52070;53.760;9.678;2022-12-20T04:02:32;8.17;88.04
65374;SHT31;52070;53.760;9.678;2022-12-20T04:04:59;8.16;88.22
65374;SHT31;52070;53.760;9.678;2022-12-20T04:07:26;8.19;88.19
65374;SHT31;52070;53.760;9.678;2022-12-20T04:09:54;8.19;88.25
65374;SHT31;52070;53.760;9.678;2022-12-20T04:12:21;8.17;88.22
65374;SHT31;52070;53.760;9.678;2022-12-20T04:14:48;8.23;88.29
65374;SHT31;52070;53.760;9.678;2022-12-20T04:17:15;8.22;88.26
65374;SHT31;52070;53.760;9.678;2022-12-20T04:19:42;8.26;88.25
65374;SHT31;52070;53.760;9.678;2022-12-20T04:22:09;8.26;88.31
65374;SHT31;52070;53.760;9.678;2022-12-20T04:24:36;8.29;88.22
65374;SHT31;52070;53.760;9.678;2022-12-20T04:27:04;8.33;88.28
65374;SHT31;52070;53.760;9.678;2022-12-20T04:29:31;8.40;88.03
65374;SHT31;52070;53.760;9.678;2022-12-20T04:31:58;8.39;87.95
65374;SHT31;52070;53.760;9.678;2022-12-20T04:34:25;8.40;87.91
65374;SHT31;52070;53.760;9.678;2022-12-20T04:36:52;8.39;87.89
65374;SHT31;52070;53.760;9.678;2022-12-20T04:39:19;8.43;87.92
65374;SHT31;52070;53.760;9.678;2022-12-20T04:41:46;8.42;87.87
65374;SHT31;52070;53.760;9.678;2022-12-20T04:44:15;8.45;88.04
65374;SHT31;52070;53.760;9.678;2022-12-20T04:46:42;8.43;88.18
65374;SHT31;52070;53.760;9.678;2022-12-20T04:49:09;8.40;88.45
65374;SHT31;52070;53.760;9.678;2022-12-20T04:51:36;8.37;88.76
65374;SHT31;52070;53.760;9.678;2022-12-20T04:54:03;8.36;89.17
65374;SHT31;52070;53.760;9.678;2022-12-20T04:56:29;8.33;89.43
65374;SHT31;52070;53.760;9.678;2022-12-20T04:58:57;8.33;89.69
65374;SHT31;52070;53.760;9.678;2022-12-20T05:01:26;8.29;90.05
65374;SHT31;52070;53.760;9.678;2022-12-20T05:03:53;8.28;90.42
65374;SHT31;52070;53.760;9.678;2022-12-20T05:06:20;8.16;90.79
65374;SHT31;52070;53.760;9.678;2022-12-20T05:08:47;8.13;91.18
65374;SHT31;52070;53.760;9.678;2022-12-20T05:11:14;8.09;91.52
65374;SHT31;52070;53.760;9.678;2022-12-20T05:13:41;8.09;91.83
65374;SHT31;52070;53.760;9.678;2022-12-20T05:16:08;8.06;92.01
65374;SHT31;52070;53.760;9.678;2022-12-20T05:18:37;7.99;92.17
65374;SHT31;52070;53.760;9.678;2022-12-20T05:21:04;7.95;92.36
65374;SHT31;52070;53.760;9.678;2022-12-20T05:23:45;7.93;92.55
65374;SHT31;52070;53.760;9.678;2022-12-20T05:26:32;7.96;92.80
65374;SHT31;52070;53.760;9.678;2022-12-20T05:28:59;7.99;92.91
65374;SHT31;52070;53.760;9.678;2022-12-20T05:31:26;7.95;92.96
65374;SHT31;52070;53.760;9.678;2022-12-20T05:33:55;7.91;92.98
65374;SHT31;52070;53.760;9.678;2022-12-20T05:36:21;7.88;93.09
65374;SHT31;52070;53.760;9.678;2022-12-20T05:38:48;7.85;93.16
65374;SHT31;52070;53.760;9.678;2022-12-20T05:41:15;7.88;93.24
65374;SHT31;52070;53.760;9.678;2022-12-20T05:43:42;7.89;93.31
65374;SHT31;52070;53.760;9.678;2022-12-20T05:46:09;7.89;93.34
65374;SHT31;52070;53.760;9.678;2022-12-20T05:48:36;7.95;93.30
65374;SHT31;52070;53.760;9.678;2022-12-20T05:51:05;7.96;93.26
65374;SHT31;52070;53.760;9.678;2022-12-20T05:53:32;8.02;93.24
65374;SHT31;52070;53.760;9.678;2022-12-20T05:55:59;7.96;93.17
65374;SHT31;52070;53.760;9.678;2022-12-20T05:58:27;7.96;93.20
65374;SHT31;52070;53.760;9.678;2022-12-20T06:00:54;7.99;93.27
65374;SHT31;52070;53.760;9.678;2022-12-20T06:03:22;7.98;93.25
65374;SHT31;52070;53.760;9.678;2022-12-20T06:05:49;8.01;93.31
65374;SHT31;52070;53.760;9.678;2022-12-20T06:08:17;7.98;93.37
65374;SHT31;52070;53.760;9.678;2022-12-20T06:10:46;8.01;93.44
65374;SHT31;52070;53.760;9.678;2022-12-20T06:13:14;8.02;93.42
65374;SHT31;52070;53.760;9.678;2022-12-20T06:15:41;8.02;93.42
65374;SHT31;52070;53.760;9.678;2022-12-20T06:18:08;8.03;93.45
65374;SHT31;52070;53.760;9.678;2022-12-20T06:20:36;7.99;93.43
65374;SHT31;52070;53.760;9.678;2022-12-20T06:23:04;8.02;93.50
65374;SHT31;52070;53.760;9.678;2022-12-20T06:25:33;8.06;93.51
65374;SHT31;52070;53.760;9.678;2022-12-20T06:28:00;8.10;93.45
65374;SHT31;52070;53.760;9.678;2022-12-20T06:30:27;8.13;93.39
65374;SHT31;52070;53.760;9.678;2022-12-20T06:32:54;8.07;93.34
65374;SHT31;52070;53.760;9.678;2022-12-20T06:35:21;8.02;93.29
65374;SHT31;52070;53.760;9.678;2022-12-20T06:37:48;7.96;93.30
65374;SHT31;52070;53.760;9.678;2022-12-20T06:40:15;7.98;93.31
65374;SHT31;52070;53.760;9.678;2022-12-20T06:42:43;7.99;93.33
65374;SHT31;52070;53.760;9.678;2022-12-20T06:45:10;8.10;93.42
65374;SHT31;52070;53.760;9.678;2022-12-20T06:47:38;8.10;93.35
65374;SHT31;52070;53.760;9.678;2022-12-20T06:50:06;8.10;93.39
65374;SHT31;52070;53.760;9.678;2022-12-20T06:52:33;8.13;93.48
65374;SHT31;52070;53.760;9.678;2022-12-20T06:55:00;8.16;93.56
65374;SHT31;52070;53.760;9.678;2022-12-20T06:57:27;8.22;93.64
65374;SHT31;52070;53.760;9.678;2022-12-20T06:59:56;8.22;93.65
65374;SHT31;52070;53.760;9.678;2022-12-20T07:02:23;8.22;93.68
65374;SHT31;52070;53.760;9.678;2022-12-20T07:04:50;8.23;93.75
65374;SHT31;52070;53.760;9.678;2022-12-20T07:07:17;8.22;93.80
65374;SHT31;52070;53.760;9.678;2022-12-20T07:09:44;8.26;93.86
65374;SHT31;52070;53.760;9.678;2022-12-20T07:12:12;8.30;93.93
65374;SHT31;52070;53.760;9.678;2022-12-20T07:14:39;8.36;93.89
65374;SHT31;52070;53.760;9.678;2022-12-20T07:17:07;8.42;93.91
65374;SHT31;52070;53.760;9.678;2022-12-20T07:19:34;8.40;93.90
65374;SHT31;52070;53.760;9.678;2022-12-20T07:22:02;8.43;93.83
65374;SHT31;52070;53.760;9.678;2022-12-20T07:24:30;8.39;93.84
65374;SHT31;52070;53.760;9.678;2022-12-20T07:26:57;8.40;93.85
65374;SHT31;52070;53.760;9.678;2022-12-20T07:29:24;8.40;93.81
65374;SHT31;52070;53.760;9.678;2022-12-20T07:31:51;8.42;93.87
65374;SHT31;52070;53.760;9.678;2022-12-20T07:34:20;8.47;93.90
65374;SHT31;52070;53.760;9.678;2022-12-20T07:36:47;8.43;93.88
65374;SHT31;52070;53.760;9.678;2022-12-20T07:39:15;8.43;93.91
65374;SHT31;52070;53.760;9.678;2022-12-20T07:41:42;8.47;93.97
65374;SHT31;52070;53.760;9.678;2022-12-20T07:44:09;8.46;93.93
65374;SHT31;52070;53.760;9.678;2022-12-20T07:46:36;8.47;93.91
65374;SHT31;52070;53.760;9.678;2022-12-20T07:49:03;8.42;93.89
65374;SHT31;52070;53.760;9.678;2022-12-20T07:51:35;8.47;93.89
65374;SHT31;52070;53.760;9.678;2022-12-20T07:54:04;8.47;93.89
65374;SHT31;52070;53.760;9.678;2022-12-20T07:56:32;8.47;93.87
65374;SHT31;52070;53.760;9.678;2022-12-20T07:59:01;8.50;93.86
65374;SHT31;52070;53.760;9.678;2022-12-20T08:01:29;8.50;93.86
65374;SHT31;52070;53.760;9.678;2022-12-20T08:04:02;8.50;93.83
65374;SHT31;52070;53.760;9.678;2022-12-20T08:06:32;8.50;93.85
65374;SHT31;52070;53.760;9.678;2022-12-20T08:09:02;8.54;93.86
65374;SHT31;52070;53.760;9.678;2022-12-20T08:11:32;8.59;93.86
65374;SHT31;52070;53.760;9.678;2022-12-20T08:14:00;8.61;93.77
65374;SHT31;52070;53.760;9.678;2022-12-20T08:16:27;8.57;93.68
65374;SHT31;52070;53.760;9.678;2022-12-20T08:18:55;8.56;93.69
65374;SHT31;52070;53.760;9.678;2022-12-20T08:21:22;8.61;93.71
65374;SHT31;52070;53.760;9.678;2022-12-20T08:23:51;8.59;93.62
65374;SHT31;52070;53.760;9.678;2022-12-20T08:26:18;8.61;93.63
65374;SHT31;52070;53.760;9.678;2022-12-20T08:28:45;8.66;93.60
65374;SHT31;52070;53.760;9.678;2022-12-20T08:31:12;8.70;93.60
65374;SHT31;52070;53.760;9.678;2022-12-20T08:33:40;8.71;93.44
65374;SHT31;52070;53.760;9.678;2022-12-20T08:36:08;8.74;93.37
65374;SHT31;52070;53.760;9.678;2022-12-20T08:38:36;8.78;93.17
65374;SHT31;52070;53.760;9.678;2022-12-20T08:41:06;8.84;93.07
65374;SHT31;52070;53.760;9.678;2022-12-20T08:43:33;8.87;92.88
65374;SHT31;52070;53.760;9.678;2022-12-20T08:46:00;8.91;92.74
65374;SHT31;52070;53.760;9.678;2022-12-20T08:48:27;8.92;92.65
65374;SHT31;52070;53.760;9.678;2022-12-20T08:50:55;8.96;92.37
65374;SHT31;52070;53.760;9.678;2022-12-20T08:53:22;8.97;92.23
65374;SHT31;52070;53.760;9.678;2022-12-20T08:55:50;8.98;92.07
65374;SHT31;52070;53.760;9.678;2022-12-20T08:58:19;9.03;91.96
65374;SHT31;52070;53.760;9.678;2022-12-20T09:00:46;9.07;91.83
65374;SHT31;52070;53.760;9.678;2022-12-20T09:03:13;9.04;91.61
65374;SHT31;52070;53.760;9.678;2022-12-20T09:05:44;9.01;91.52
65374;SHT31;52070;53.760;9.678;2022-12-20T09:08:12;9.07;91.48
65374;SHT31;52070;53.760;9.678;2022-12-20T09:10:40;9.07;91.51
65374;SHT31;52070;53.760;9.678;2022-12-20T09:13:07;9.07;91.55
65374;SHT31;52070;53.760;9.678;2022-12-20T09:15:35;9.12;91.51
65374;SHT31;52070;53.760;9.678;2022-12-20T09:18:03;9.12;91.49
65374;SHT31;52070;53.760;9.678;2022-12-20T09:20:30;9.14;91.45
65374;SHT31;52070;53.760;9.678;2022-12-20T09:22:58;9.12;91.49
65374;SHT31;52070;53.760;9.678;2022-12-20T09:25:26;9.17;91.33
65374;SHT31;52070;53.760;9.678;2022-12-20T09:27:54;9.20;91.19
65374;SHT31;52070;53.760;9.678;2022-12-20T09:30:21;9.21;91.00
65374;SHT31;52070;53.760;9.678;2022-12-20T09:32:50;9.27;90.91
65374;SHT31;52070;53.760;9.678;2022-12-20T09:35:17;9.28;90.82
65374;SHT31;52070;53.760;9.678;2022-12-20T09:37:44;9.36;90.71
65374;SHT31;52070;53.760;9.678;2022-12-20T09:40:16;9.35;90.66
65374;SHT31;52070;53.760;9.678;2022-12-20T09:42:44;9.35;90.70
65374;SHT31;52070;53.760;9.678;2022-12-20T09:45:17;9.32;90.75
65374;SHT31;52070;53.760;9.678;2022-12-20T09:47:46;9.35;90.99
65374;SHT31;52070;53.760;9.678;2022-12-20T09:50:16;9.35;91.34
65374;SHT31;52070;53.760;9.678;2022-12-20T09:52:58;9.28;91.74
65374;SHT31;52070;53.760;9.678;2022-12-20T09:55:33;9.22;92.22
65374;SHT31;52070;53.760;9.678;2022-12-20T09:58:19;9.17;92.69
65374;SHT31;52070;53.760;9.678;2022-12-20T10:00:51;9.15;93.11
65374;SHT31;52070;53.760;9.678;2022-12-20T10:03:21;9.11;93.41
65374;SHT31;52070;53.760;9.678;2022-12-20T10:05:52;9.12;93.58
65374;SHT31;52070;53.760;9.678;2022-12-20T10:08:29;9.14;93.77
65374;SHT31;52070;53.760;9.678;2022-12-20T10:11:07;9.11;93.82
65374;SHT31;52070;53.760;9.678;2022-12-20T10:13:44;9.10;93.91
65374;SHT31;52070;53.760;9.678;2022-12-20T10:16:31;9.11;94.06
65374;SHT31;52070;53.760;9.678;2022-12-20T10:19:09;9.15;94.16
65374;SHT31;52070;53.760;9.678;2022-12-20T10:21:46;9.17;94.18
65374;SHT31;52070;53.760;9.678;2022-12-20T10:24:17;9.18;94.26
65374;SHT31;52070;53.760;9.678;2022-12-20T10:26:44;9.24;94.28
65374;SHT31;52070;53.760;9.678;2022-12-20T10:29:12;9.30;94.32
65374;SHT31;52070;53.760;9.678;2022-12-20T10:31:39;9.21;94.34
65374;SHT31;52070;53.760;9.678;2022-12-20T10:34:06;9.25;94.39
65374;SHT31;52070;53.760;9.678;2022-12-20T10:36:35;9.27;94.41
65374;SHT31;52070;53.760;9.678;2022-12-20T10:39:05;9.30;94.38
65374;SHT31;52070;53.760;9.678;2022-12-20T10:41:46;9.35;94.34
65374;SHT31;52070;53.760;9.678;2022-12-20T10:44:17;9.46;94.31
65374;SHT31;52070;53.760;9.678;2022-12-20T10:46:47;9.55;94.27
65374;SHT31;52070;53.760;9.678;2022-12-20T10:49:29;9.51;94.11
65374;SHT31;52070;53.760;9.678;2022-12-20T10:51:57;9.65;93.89
65374;SHT31;52070;53.760;9.678;2022-12-20T10:54:31;9.76;93.75
65374;SHT31;52070;53.760;9.678;2022-12-20T10:56:59;9.78;93.49
65374;SHT31;52070;53.760;9.678;2022-12-20T10:59:32;9.83;93.29
65374;SHT31;52070;53.760;9.678;2022-12-20T11:02:00;9.89;93.24
65374;SHT31;52070;53.760;9.678;2022-12-20T11:04:30;9.90;92.59
65374;SHT31;52070;53.760;9.678;2022-12-20T11:06:58;9.93;92.03
65374;SHT31;52070;53.760;9.678;2022-12-20T11:09:29;9.96;91.86
65374;SHT31;52070;53.760;9.678;2022-12-20T11:11:58;9.86;91.52
65374;SHT31;52070;53.760;9.678;2022-12-20T11:14:25;9.83;91.36
65374;SHT31;52070;53.760;9.678;2022-12-20T11:16:54;9.89;91.29
65374;SHT31;52070;53.760;9.678;2022-12-20T11:19:30;9.85;90.95
65374;SHT31;52070;53.760;9.678;2022-12-20T11:22:04;9.81;90.86
65374;SHT31;52070;53.760;9.678;2022-12-20T11:24:44;9.82;90.53
65374;SHT31;52070;53.760;9.678;2022-12-20T11:27:21;9.78;90.55
65374;SHT31;52070;53.760;9.678;2022-12-20T11:30:12;9.73;90.54
65374;SHT31;52070;53.760;9.678;2022-12-20T11:35:50;9.82;89.95
65374;SHT31;52070;53.760;9.678;2022-12-20T11:38:28;9.76;89.78
65374;SHT31;52070;53.760;9.678;2022-12-20T11:41:08;9.76;89.74
65374;SHT31;52070;53.760;9.678;2022-12-20T11:43:50;9.79;89.50
65374;SHT31;52070;53.760;9.678;2022-12-20T11:46:32;9.86;88.92
65374;SHT31;52070;53.760;9.678;2022-12-20T11:49:18;9.87;88.77
65374;SHT31;52070;53.760;9.678;2022-12-20T11:51:52;9.82;89.09
65374;SHT31;52070;53.760;9.678;2022-12-20T11:54:27;9.85;88.96
65374;SHT31;52070;53.760;9.678;2022-12-20T11:56:59;9.85;88.75
65374;SHT31;52070;53.760;9.678;2022-12-20T11:59:34;9.90;88.25
65374;SHT31;52070;53.760;9.678;2022-12-20T12:02:09;9.90;88.25
65374;SHT31;52070;53.760;9.678;2022-12-20T12:04:40;9.95;88.15
65374;SHT31;52070;53.760;9.678;2022-12-20T12:07:12;9.90;88.28
65374;SHT31;52070;53.760;9.678;2022-12-20T12:09:46;9.89;88.21
65374;SHT31;52070;53.760;9.678;2022-12-20T12:12:22;9.87;88.22
65374;SHT31;52070;53.760;9.678;2022-12-20T12:14:55;9.87;88.43
65374;SHT31;52070;53.760;9.678;2022-12-20T12:17:30;9.92;88.29
65374;SHT31;52070;53.760;9.678;2022-12-20T12:22:46;9.99;87.84
65374;SHT31;52070;53.760;9.678;2022-12-20T12:25:17;10.03;87.93
65374;SHT31;52070;53.760;9.678;2022-12-20T12:27:45;9.99;87.71
65374;SHT31;52070;53.760;9.678;2022-12-20T12:30:13;10.06;87.77
65374;SHT31;52070;53.760;9.678;2022-12-20T12:32:44;9.96;88.00
65374;SHT31;52070;53.760;9.678;2022-12-20T12:38:34;9.95;88.22
65374;SHT31;52070;53.760;9.678;2022-12-20T12:41:20;9.99;87.80
65374;SHT31;52070;53.760;9.678;2022-12-20T12:43:53;9.96;88.34
65374;SHT31;52070;53.760;9.678;2022-12-20T12:46:25;9.97;88.31
65374;SHT31;52070;53.760;9.678;2022-12-20T12:48:57;9.97;88.36
65374;SHT31;52070;53.760;9.678;2022-12-20T12:51:28;9.99;88.44
65374;SHT31;52070;53.760;9.678;2022-12-20T12:54:15;9.95;88.49
65374;SHT31;52070;53.760;9.678;2022-12-20T12:56:45;9.96;88.72
65374;SHT31;52070;53.760;9.678;2022-12-20T12:59:40;9.96;88.62
65374;SHT31;52070;53.760;9.678;2022-12-20T13:02:33;9.96;88.43
65374;SHT31;52070;53.760;9.678;2022-12-20T13:05:29;9.93;88.58
65374;SHT31;52070;53.760;9.678;2022-12-20T13:07:56;10.00;88.52
65374;SHT31;52070;53.760;9.678;2022-12-20T13:13:32;9.96;88.48
65374;SHT31;52070;53.760;9.678;2022-12-20T13:16:10;9.90;88.62
65374;SHT31;52070;53.760;9.678;2022-12-20T13:18:56;9.89;88.85
65374;SHT31;52070;53.760;9.678;2022-12-20T13:21:36;9.83;89.03
65374;SHT31;52070;53.760;9.678;2022-12-20T13:24:37;9.83;89.18
65374;SHT31;52070;53.760;9.678;2022-12-20T13:27:25;9.75;89.39
65374;SHT31;52070;53.760;9.678;2022-12-20T13:30:24;9.71;89.85
65374;SHT31;52070;53.760;9.678;2022-12-20T13:36:02;9.58;90.65
65374;SHT31;52070;53.760;9.678;2022-12-20T13:38:48;9.55;90.92
65374;SHT31;52070;53.760;9.678;2022-12-20T13:41:24;9.48;91.12
65374;SHT31;52070;53.760;9.678;2022-12-20T13:43:55;9.51;91.29
65374;SHT31;52070;53.760;9.678;2022-12-20T13:46:26;9.43;91.41
65374;SHT31;52070;53.760;9.678;2022-12-20T13:49:00;9.39;91.63
65374;SHT31;52070;53.760;9.678;2022-12-20T13:51:29;9.42;91.73
65374;SHT31;52070;53.760;9.678;2022-12-20T13:54:03;9.38;91.82
65374;SHT31;52070;53.760;9.678;2022-12-20T13:56:35;9.39;91.92
65374;SHT31;52070;53.760;9.678;2022-12-20T13:59:06;9.43;92.08
65374;SHT31;52070;53.760;9.678;2022-12-20T14:01:35;9.42;92.04
65374;SHT31;52070;53.760;9.678;2022-12-20T14:04:05;9.41;92.03
65374;SHT31;52070;53.760;9.678;2022-12-20T14:06:32;9.43;92.05
65374;SHT31;52070;53.760;9.678;2022-12-20T14:09:00;9.39;92.08
65374;SHT31;52070;53.760;9.678;2022-12-20T14:11:28;9.38;92.08
65374;SHT31;52070;53.760;9.678;2022-12-20T14:13:56;9.35;92.12
65374;SHT31;52070;53.760;9.678;2022-12-20T14:16:31;9.39;92.15
65374;SHT31;52070;53.760;9.678;2022-12-20T14:19:02;9.41;92.05
65374;SHT31;52070;53.760;9.678;2022-12-20T14:21:33;9.46;92.03
65374;SHT31;52070;53.760;9.678;2022-12-20T14:24:02;9.46;91.92
65374;SHT31;52070;53.760;9.678;2022-12-20T14:26:32;9.43;92.00
65374;SHT31;52070;53.760;9.678;2022-12-20T14:29:02;9.43;92.08
65374;SHT31;52070;53.760;9.678;2022-12-20T14:31:37;9.41;92.19
65374;SHT31;52070;53.760;9.678;2022-12-20T14:34:13;9.48;92.33
65374;SHT31;52070;53.760;9.678;2022-12-20T14:36:43;9.45;92.36
65374;SHT31;52070;53.760;9.678;2022-12-20T14:39:22;9.42;92.47
65374;SHT31;52070;53.760;9.678;2022-12-20T14:41:54;9.42;92.62
65374;SHT31;52070;53.760;9.678;2022-12-20T14:44:23;9.45;92.68
65374;SHT31;52070;53.760;9.678;2022-12-20T14:46:52;9.41;92.76
65374;SHT31;52070;53.760;9.678;2022-12-20T14:49:23;9.45;92.82
65374;SHT31;52070;53.760;9.678;2022-12-20T14:52:04;9.48;92.87
65374;SHT31;52070;53.760;9.678;2022-12-20T14:54:32;9.45;92.87
65374;SHT31;52070;53.760;9.678;2022-12-20T14:57:00;9.41;92.91
65374;SHT31;52070;53.760;9.678;2022-12-20T14:59:28;9.34;92.98
65374;SHT31;52070;53.760;9.678;2022-12-20T15:01:56;9.30;93.04
65374;SHT31;52070;53.760;9.678;2022-12-20T15:04:29;9.27;93.20
65374;SHT31;52070;53.760;9.678;2022-12-20T15:06:59;9.25;93.29
65374;SHT31;52070;53.760;9.678;2022-12-20T15:09:26;9.24;93.38
65374;SHT31;52070;53.760;9.678;2022-12-20T15:11:54;9.27;93.46
65374;SHT31;52070;53.760;9.678;2022-12-20T15:14:30;9.22;93.46
65374;SHT31;52070;53.760;9.678;2022-12-20T15:16:58;9.17;93.54
65374;SHT31;52070;53.760;9.678;2022-12-20T15:19:25;9.27;93.65
65374;SHT31;52070;53.760;9.678;2022-12-20T15:21:52;9.24;93.60
65374;SHT31;52070;53.760;9.678;2022-12-20T15:24:23;9.21;93.66
65374;SHT31;52070;53.760;9.678;2022-12-20T15:26:50;9.22;93.75
65374;SHT31;52070;53.760;9.678;2022-12-20T15:29:20;9.22;93.77
65374;SHT31;52070;53.760;9.678;2022-12-20T15:31:47;9.24;93.86
65374;SHT31;52070;53.760;9.678;2022-12-20T15:34:18;9.25;93.92
65374;SHT31;52070;53.760;9.678;2022-12-20T15:36:49;9.25;94.00
65374;SHT31;52070;53.760;9.678;2022-12-20T15:39:17;9.24;94.09
65374;SHT31;52070;53.760;9.678;2022-12-20T15:41:48;9.22;94.18
65374;SHT31;52070;53.760;9.678;2022-12-20T15:44:17;9.22;94.28
65374;SHT31;52070;53.760;9.678;2022-12-20T15:46:45;9.21;94.33
65374;SHT31;52070;53.760;9.678;2022-12-20T15:49:13;9.20;94.38
65374;SHT31;52070;53.760;9.678;2022-12-20T15:51:41;9.21;94.45
65374;SHT31;52070;53.760;9.678;2022-12-20T15:54:17;9.22;94.47
65374;SHT31;52070;53.760;9.678;2022-12-20T15:56:48;9.24;94.47
65374;SHT31;52070;53.760;9.678;2022-12-20T15:59:15;9.20;94.45
65374;SHT31;52070;53.760;9.678;2022-12-20T16:01:42;9.20;94.43
65374;SHT31;52070;53.760;9.678;2022-12-20T16:04:13;9.24;94.43
65374;SHT31;52070;53.760;9.678;2022-12-20T16:06:40;9.27;94.38
65374;SHT31;52070;53.760;9.678;2022-12-20T16:09:08;9.22;94.32
65374;SHT31;52070;53.760;9.678;2022-12-20T16:11:35;9.25;94.35
65374;SHT31;52070;53.760;9.678;2022-12-20T16:14:03;9.28;94.32
65374;SHT31;52070;53.760;9.678;2022-12-20T16:16:32;9.25;94.32
65374;SHT31;52070;53.760;9.678;2022-12-20T16:18:59;9.24;94.40
65374;SHT31;52070;53.760;9.678;2022-12-20T16:21:30;9.28;94.41